createdAt,value
2022-08-04T00:00:59.213Z,122.82
2022-08-04T00:01:59.245Z,122.82
2022-08-04T00:02:59.219Z,122.82
2022-08-04T00:03:59.223Z,122.82
2022-08-04T00:04:59.219Z,122.82
2022-08-04T00:05:59.227Z,122.82
2022-08-04T00:06:59.226Z,122.82
2022-08-04T00:07:59.227Z,122.82
2022-08-04T00:08:59.228Z,122.82
2022-08-04T00:09:59.234Z,122.82
2022-08-04T00:10:59.223Z,122.82
2022-08-04T00:11:59.232Z,122.82
2022-08-04T00:12:59.230Z,122.82
2022-08-04T00:14:02.567Z,122.82
2022-08-04T00:14:59.226Z,122.82
2022-08-04T00:15:59.245Z,122.82
2022-08-04T00:16:59.228Z,122.82
2022-08-04T00:17:59.239Z,122.82
2022-08-04T00:18:59.235Z,122.82
2022-08-04T00:19:59.237Z,122.82
2022-08-04T00:20:59.238Z,122.82
2022-08-04T00:21:59.234Z,122.82
2022-08-04T00:22:59.243Z,122.82
2022-08-04T00:24:10.291Z,122.82
2022-08-04T00:24:59.239Z,122.82
2022-08-04T00:25:59.239Z,122.82
2022-08-04T00:26:59.254Z,122.82
2022-08-04T00:27:59.250Z,122.82
2022-08-04T00:28:59.248Z,122.82
2022-08-04T00:29:59.243Z,122.82
2022-08-04T00:30:59.245Z,122.82
2022-08-04T00:31:59.252Z,122.82
2022-08-04T00:32:59.262Z,122.82
2022-08-04T00:33:59.260Z,122.82
2022-08-04T00:34:59.259Z,122.82
2022-08-04T00:35:59.247Z,122.82
2022-08-04T00:36:59.266Z,122.82
2022-08-04T00:37:59.265Z,122.82
2022-08-04T00:38:59.302Z,122.82
2022-08-04T00:39:59.265Z,122.82
2022-08-04T00:40:59.274Z,122.82
2022-08-04T00:41:59.269Z,122.82
2022-08-04T00:42:59.656Z,122.82
2022-08-04T00:43:59.274Z,122.82
2022-08-04T00:44:59.276Z,122.82
2022-08-04T00:46:10.625Z,122.82
2022-08-04T00:46:59.271Z,122.82
2022-08-04T00:47:59.287Z,122.82
2022-08-04T00:48:59.274Z,122.82
2022-08-04T00:49:59.276Z,122.82
2022-08-04T00:50:59.279Z,122.82
2022-08-04T00:52:31.270Z,122.82
2022-08-04T00:52:59.282Z,122.82
2022-08-04T00:53:59.282Z,122.82
2022-08-04T00:54:59.283Z,122.82
2022-08-04T00:55:59.277Z,122.82
2022-08-04T00:56:59.274Z,122.82
2022-08-04T00:57:59.284Z,122.82
2022-08-04T00:58:59.283Z,122.82
2022-08-04T00:59:59.284Z,122.82
2022-08-04T01:00:59.333Z,122.82
2022-08-04T01:01:59.288Z,122.82
2022-08-04T01:02:59.284Z,122.82
2022-08-04T01:03:59.282Z,122.82
2022-08-04T01:04:59.289Z,122.82
2022-08-04T01:05:59.293Z,122.82
2022-08-04T01:06:59.287Z,122.82
2022-08-04T01:07:59.295Z,122.82
2022-08-04T01:08:59.293Z,122.82
2022-08-04T01:09:59.294Z,122.82
2022-08-04T01:10:59.296Z,122.82
2022-08-04T01:11:59.306Z,122.82
2022-08-04T01:12:59.301Z,122.82
2022-08-04T01:13:59.307Z,122.82
2022-08-04T01:14:59.302Z,122.82
2022-08-04T01:16:00.278Z,122.82
2022-08-04T01:16:59.300Z,122.82
2022-08-04T01:17:59.299Z,122.82
2022-08-04T01:18:59.310Z,122.82
2022-08-04T01:19:59.312Z,122.82
2022-08-04T01:20:59.304Z,122.82
2022-08-04T01:21:59.311Z,122.82
2022-08-04T01:22:59.312Z,122.82
2022-08-04T01:23:59.308Z,122.82
2022-08-04T01:24:59.326Z,122.82
2022-08-04T01:25:59.312Z,122.82
2022-08-04T01:26:59.320Z,122.82
2022-08-04T01:27:59.326Z,122.82
2022-08-04T01:28:59.324Z,122.82
2022-08-04T01:29:59.319Z,122.82
2022-08-04T01:30:59.328Z,122.82
2022-08-04T01:31:59.325Z,122.82
2022-08-04T01:32:59.326Z,122.82
2022-08-04T01:34:03.525Z,122.82
2022-08-04T01:34:59.318Z,122.82
2022-08-04T01:35:59.388Z,122.82
2022-08-04T01:36:59.365Z,122.82
2022-08-04T01:37:59.337Z,122.82
2022-08-04T01:38:59.381Z,122.82
2022-08-04T01:39:59.345Z,122.82
2022-08-04T01:40:59.339Z,122.82
2022-08-04T01:41:59.346Z,122.82
2022-08-04T01:42:59.348Z,122.82
2022-08-04T01:43:59.345Z,122.82
2022-08-04T01:44:59.344Z,122.82
2022-08-04T01:45:59.343Z,122.82
2022-08-04T01:46:59.337Z,122.82
2022-08-04T01:47:59.343Z,122.82
2022-08-04T01:48:59.343Z,122.82
2022-08-04T01:49:59.350Z,122.82
2022-08-04T01:50:59.352Z,122.82
2022-08-04T01:51:59.360Z,122.82
2022-08-04T01:52:59.349Z,122.82
2022-08-04T01:53:59.348Z,122.82
2022-08-04T01:54:59.355Z,122.82
2022-08-04T01:55:59.351Z,122.82
2022-08-04T01:56:59.355Z,122.82
2022-08-04T01:57:59.362Z,122.82
2022-08-04T01:58:59.354Z,122.82
2022-08-04T01:59:59.357Z,122.82
2022-08-04T02:00:59.403Z,122.82
2022-08-04T02:01:59.519Z,122.82
2022-08-04T02:02:59.432Z,122.82
2022-08-04T02:04:19.260Z,122.82
2022-08-04T02:04:59.371Z,122.82
2022-08-04T02:06:02.799Z,122.82
2022-08-04T02:06:59.376Z,122.82
2022-08-04T02:07:59.374Z,122.82
2022-08-04T02:08:59.365Z,122.82
2022-08-04T02:09:59.372Z,122.82
2022-08-04T02:10:59.377Z,122.82
2022-08-04T02:11:59.375Z,122.82
2022-08-04T02:12:59.373Z,122.82
2022-08-04T02:13:59.367Z,122.82
2022-08-04T02:14:59.376Z,122.82
2022-08-04T02:15:59.381Z,122.82
2022-08-04T02:16:59.378Z,122.82
2022-08-04T02:17:59.384Z,122.82
2022-08-04T02:18:59.380Z,122.82
2022-08-04T02:19:59.380Z,122.82
2022-08-04T02:20:59.385Z,122.82
2022-08-04T02:21:59.385Z,122.82
2022-08-04T02:22:59.379Z,122.82
2022-08-04T02:23:59.389Z,122.82
2022-08-04T02:24:59.393Z,122.82
2022-08-04T02:25:59.382Z,122.82
2022-08-04T02:26:59.390Z,122.82
2022-08-04T02:28:00.915Z,122.82
2022-08-04T02:28:59.392Z,122.82
2022-08-04T02:29:59.402Z,122.82
2022-08-04T02:30:59.388Z,122.82
2022-08-04T02:31:59.425Z,122.82
2022-08-04T02:32:59.388Z,122.82
2022-08-04T02:33:59.399Z,122.82
2022-08-04T02:34:59.396Z,122.82
2022-08-04T02:35:59.395Z,122.82
2022-08-04T02:36:59.395Z,122.82
2022-08-04T02:37:59.396Z,122.82
2022-08-04T02:38:59.452Z,122.82
2022-08-04T02:39:59.403Z,122.82
2022-08-04T02:41:00.279Z,122.82
2022-08-04T02:41:59.401Z,122.82
2022-08-04T02:42:59.404Z,122.82
2022-08-04T02:43:59.399Z,122.82
2022-08-04T02:44:59.411Z,122.82
2022-08-04T02:45:59.408Z,122.82
2022-08-04T02:46:59.415Z,122.82
2022-08-04T02:48:08.017Z,122.82
2022-08-04T02:48:59.405Z,122.82
2022-08-04T02:49:59.431Z,122.82
2022-08-04T02:50:59.409Z,122.82
2022-08-04T02:51:59.418Z,122.82
2022-08-04T02:52:59.413Z,122.82
2022-08-04T02:53:59.416Z,122.82
2022-08-04T02:54:59.419Z,122.82
2022-08-04T02:55:59.421Z,122.82
2022-08-04T02:56:59.416Z,122.82
2022-08-04T02:57:59.429Z,122.82
2022-08-04T02:58:59.427Z,122.82
2022-08-04T02:59:59.441Z,122.82
2022-08-04T03:00:59.477Z,122.82
2022-08-04T03:01:59.419Z,122.82
2022-08-04T03:02:59.421Z,122.82
2022-08-04T03:03:59.428Z,122.82
2022-08-04T03:04:59.421Z,122.82
2022-08-04T03:06:00.907Z,122.82
2022-08-04T03:06:59.417Z,122.82
2022-08-04T03:07:59.429Z,122.82
2022-08-04T03:08:59.423Z,122.82
2022-08-04T03:09:59.427Z,122.82
2022-08-04T03:10:59.424Z,122.82
2022-08-04T03:11:59.419Z,122.82
2022-08-04T03:12:59.422Z,122.82
2022-08-04T03:13:59.430Z,122.82
2022-08-04T03:14:59.429Z,122.82
2022-08-04T03:15:59.436Z,122.82
2022-08-04T03:16:59.433Z,122.82
2022-08-04T03:17:59.435Z,122.82
2022-08-04T03:18:59.431Z,122.82
2022-08-04T03:19:59.440Z,122.82
2022-08-04T03:20:59.439Z,122.82
2022-08-04T03:21:59.429Z,122.82
2022-08-04T03:23:12.887Z,122.82
2022-08-04T03:23:59.434Z,122.82
2022-08-04T03:24:59.437Z,122.82
2022-08-04T03:25:59.438Z,122.82
2022-08-04T03:26:59.436Z,122.82
2022-08-04T03:27:59.446Z,122.82
2022-08-04T03:28:59.436Z,122.82
2022-08-04T03:29:59.446Z,122.82
2022-08-04T03:30:59.443Z,122.82
2022-08-04T03:31:59.441Z,122.82
2022-08-04T03:32:59.443Z,122.82
2022-08-04T03:33:59.440Z,122.82
2022-08-04T03:34:59.453Z,122.82
2022-08-04T03:35:59.476Z,122.82
2022-08-04T03:36:59.448Z,122.82
2022-08-04T03:37:59.439Z,122.82
2022-08-04T03:38:59.484Z,122.82
2022-08-04T03:39:59.445Z,122.82
2022-08-04T03:40:59.453Z,122.82
2022-08-04T03:42:03.887Z,122.82
2022-08-04T03:42:59.446Z,122.82
2022-08-04T03:44:00.048Z,122.82
2022-08-04T03:44:59.444Z,122.82
2022-08-04T03:45:59.459Z,122.82
2022-08-04T03:46:59.451Z,122.82
2022-08-04T03:47:59.450Z,122.82
2022-08-04T03:48:59.455Z,122.82
2022-08-04T03:49:59.451Z,122.82
2022-08-04T03:50:59.455Z,122.82
2022-08-04T03:51:59.454Z,122.82
2022-08-04T03:52:59.444Z,122.82
2022-08-04T03:53:59.447Z,122.82
2022-08-04T03:54:59.448Z,122.82
2022-08-04T03:55:59.452Z,122.82
2022-08-04T03:56:59.450Z,122.82
2022-08-04T03:57:59.458Z,122.82
2022-08-04T03:58:59.452Z,122.82
2022-08-04T03:59:59.462Z,122.82
2022-08-04T04:00:59.456Z,122.82
2022-08-04T04:02:01.829Z,122.82
2022-08-04T04:02:59.457Z,122.82
2022-08-04T04:03:59.463Z,122.82
2022-08-04T04:04:59.458Z,122.82
2022-08-04T04:06:00.538Z,122.82
2022-08-04T04:06:59.479Z,122.82
2022-08-04T04:08:01.656Z,122.82
2022-08-04T04:08:59.540Z,122.82
2022-08-04T04:10:05.101Z,122.82
2022-08-04T04:10:59.470Z,122.82
2022-08-04T04:11:59.472Z,122.82
2022-08-04T04:12:59.480Z,122.82
2022-08-04T04:13:59.481Z,122.82
2022-08-04T04:14:59.478Z,122.82
2022-08-04T04:15:59.474Z,122.82
2022-08-04T04:16:59.478Z,122.82
2022-08-04T04:17:59.477Z,122.82
2022-08-04T04:18:59.692Z,122.82
2022-08-04T04:19:59.474Z,122.82
2022-08-04T04:20:59.476Z,122.82
2022-08-04T04:21:59.486Z,122.82
2022-08-04T04:22:59.478Z,122.82
2022-08-04T04:23:59.485Z,122.82
2022-08-04T04:24:59.479Z,122.82
2022-08-04T04:25:59.485Z,122.82
2022-08-04T04:26:59.485Z,122.82
2022-08-04T04:28:43.950Z,122.82
2022-08-04T04:29:03.163Z,122.82
2022-08-04T04:29:59.496Z,122.82
2022-08-04T04:30:59.497Z,122.82
2022-08-04T04:31:59.501Z,122.82
2022-08-04T04:32:59.495Z,122.82
2022-08-04T04:33:59.500Z,122.82
2022-08-04T04:34:59.510Z,122.82
2022-08-04T04:35:59.505Z,122.82
2022-08-04T04:36:59.507Z,122.82
2022-08-04T04:37:59.509Z,122.82
2022-08-04T04:38:59.543Z,122.82
2022-08-04T04:39:59.544Z,122.82
2022-08-04T04:40:59.515Z,122.82
2022-08-04T04:41:59.521Z,122.82
2022-08-04T04:42:59.529Z,122.82
2022-08-04T04:43:59.525Z,122.82
2022-08-04T04:44:59.525Z,122.82
2022-08-04T04:45:59.527Z,122.82
2022-08-04T04:46:59.522Z,122.82
2022-08-04T04:48:09.304Z,122.82
2022-08-04T04:48:59.524Z,122.82
2022-08-04T04:49:59.532Z,122.82
2022-08-04T04:50:59.531Z,122.82
2022-08-04T04:51:59.522Z,122.82
2022-08-04T04:52:59.534Z,122.82
2022-08-04T04:53:59.946Z,122.82
2022-08-04T04:54:59.535Z,122.82
2022-08-04T04:55:59.534Z,122.82
2022-08-04T04:56:59.540Z,122.82
2022-08-04T04:57:59.533Z,122.82
2022-08-04T04:58:59.537Z,122.82
2022-08-04T04:59:59.541Z,122.82
2022-08-04T05:00:59.542Z,122.82
2022-08-04T05:01:59.543Z,122.82
2022-08-04T05:03:01.166Z,122.82
2022-08-04T05:03:59.550Z,122.82
2022-08-04T05:04:59.539Z,122.82
2022-08-04T05:05:59.549Z,122.82
2022-08-04T05:06:59.543Z,122.82
2022-08-04T05:07:59.545Z,122.82
2022-08-04T05:08:59.549Z,122.82
2022-08-04T05:09:59.544Z,122.82
2022-08-04T05:10:59.553Z,122.82
2022-08-04T05:11:59.554Z,122.82
2022-08-04T05:14:33.693Z,122.82
2022-08-04T05:14:33.704Z,122.82
2022-08-04T05:14:59.558Z,122.82
2022-08-04T05:15:59.556Z,122.82
2022-08-04T05:16:59.554Z,122.82
2022-08-04T05:17:59.548Z,122.82
2022-08-04T05:18:59.560Z,122.82
2022-08-04T05:19:59.556Z,122.82
2022-08-04T05:20:59.555Z,122.82
2022-08-04T05:21:59.553Z,122.82
2022-08-04T05:22:59.566Z,122.82
2022-08-04T05:23:59.564Z,122.82
2022-08-04T05:24:59.573Z,122.82
2022-08-04T05:26:00.181Z,122.82
2022-08-04T05:26:59.575Z,122.82
2022-08-04T05:27:59.560Z,122.82
2022-08-04T05:28:59.572Z,122.82
2022-08-04T05:29:59.574Z,122.82
2022-08-04T05:30:59.569Z,122.82
2022-08-04T05:31:59.578Z,122.82
2022-08-04T05:32:59.981Z,122.82
2022-08-04T05:33:59.571Z,122.82
2022-08-04T05:34:59.573Z,122.82
2022-08-04T05:36:20.918Z,122.82
2022-08-04T05:36:59.573Z,122.82
2022-08-04T05:38:01.099Z,122.82
2022-08-04T05:38:59.634Z,122.82
2022-08-04T05:39:59.584Z,122.82
2022-08-04T05:40:59.590Z,122.82
2022-08-04T05:42:04.731Z,122.82
2022-08-04T05:42:59.592Z,122.82
2022-08-04T05:43:59.606Z,122.82
2022-08-04T05:44:59.615Z,122.82
2022-08-04T05:45:59.597Z,122.82
2022-08-04T05:46:59.583Z,122.82
2022-08-04T05:47:59.584Z,122.82
2022-08-04T05:48:59.582Z,122.82
2022-08-04T05:50:01.806Z,122.82
2022-08-04T05:51:01.115Z,122.82
2022-08-04T05:51:59.596Z,122.82
2022-08-04T05:52:59.946Z,122.82
2022-08-04T05:53:59.590Z,122.82
2022-08-04T05:54:59.598Z,135.53
2022-08-04T05:56:00.041Z,132.71
2022-08-04T05:56:59.602Z,132.71
2022-08-04T05:57:59.601Z,132.71
2022-08-04T05:58:59.612Z,132.71
2022-08-04T05:59:59.612Z,132.71
2022-08-04T06:00:59.609Z,132.71
2022-08-04T06:01:59.660Z,132.71
2022-08-04T06:02:59.601Z,132.71
2022-08-04T06:03:59.606Z,132.71
2022-08-04T06:04:59.608Z,132.71
2022-08-04T06:05:59.606Z,132.71
2022-08-04T06:06:59.611Z,132.71
2022-08-04T06:08:04.732Z,132.71
2022-08-04T06:08:59.608Z,132.71
2022-08-04T06:09:59.615Z,132.71
2022-08-04T06:10:59.619Z,203.29
2022-08-04T06:12:03.537Z,170.82
2022-08-04T06:12:59.608Z,170.82
2022-08-04T06:13:59.617Z,170.82
2022-08-04T06:14:59.873Z,170.82
2022-08-04T06:15:59.620Z,170.82
2022-08-04T06:16:59.679Z,170.82
2022-08-04T06:18:34.457Z,170.82
2022-08-04T06:19:58.089Z,170.82
2022-08-04T06:20:17.764Z,170.82
2022-08-04T06:20:59.626Z,170.82
2022-08-04T06:21:59.636Z,170.82
2022-08-04T06:22:59.629Z,170.82
2022-08-04T06:24:04.046Z,170.82
2022-08-04T06:24:59.629Z,170.82
2022-08-04T06:25:59.638Z,170.82
2022-08-04T06:26:59.634Z,170.82
2022-08-04T06:27:59.637Z,170.82
2022-08-04T06:28:59.634Z,170.82
2022-08-04T06:29:59.636Z,170.82
2022-08-04T06:30:59.635Z,170.82
2022-08-04T06:32:29.249Z,170.82
2022-08-04T06:33:03.221Z,170.82
2022-08-04T06:33:59.660Z,170.82
2022-08-04T06:34:59.640Z,170.82
2022-08-04T06:35:59.641Z,170.82
2022-08-04T06:36:59.638Z,170.82
2022-08-04T06:38:01.083Z,170.82
2022-08-04T06:38:59.696Z,170.82
2022-08-04T06:39:59.643Z,170.82
2022-08-04T06:40:59.645Z,170.82
2022-08-04T06:42:14.957Z,170.82
2022-08-04T06:42:59.648Z,170.82
2022-08-04T06:43:59.658Z,170.82
2022-08-04T06:44:59.646Z,170.82
2022-08-04T06:45:59.644Z,170.82
2022-08-04T06:46:59.638Z,170.82
2022-08-04T06:47:59.646Z,170.82
2022-08-04T06:48:59.643Z,170.82
2022-08-04T06:51:23.849Z,290.82
2022-08-04T06:51:29.069Z,293.65
2022-08-04T06:51:59.651Z,300.71
2022-08-04T06:52:59.646Z,199.06
2022-08-04T06:53:59.641Z,199.06
2022-08-04T06:54:59.652Z,199.06
2022-08-04T06:55:59.659Z,199.06
2022-08-04T06:56:59.647Z,199.06
2022-08-04T06:58:03.012Z,199.06
2022-08-04T06:58:59.665Z,199.06
2022-08-04T06:59:59.666Z,199.06
2022-08-04T07:00:59.680Z,234.35
2022-08-04T07:01:59.670Z,238.59
2022-08-04T07:02:59.659Z,201.88
2022-08-04T07:03:59.659Z,312
2022-08-04T07:05:01.541Z,302.12
2022-08-04T07:05:59.664Z,309.18
2022-08-04T07:06:59.654Z,310.59
2022-08-04T07:07:59.675Z,354.35
2022-08-04T07:08:59.662Z,310.59
2022-08-04T07:09:59.668Z,280.94
2022-08-04T07:10:59.676Z,264
2022-08-04T07:11:59.666Z,269.65
2022-08-04T07:12:59.678Z,269.65
2022-08-04T07:13:59.674Z,269.65
2022-08-04T07:14:59.675Z,269.65
2022-08-04T07:15:59.665Z,269.65
2022-08-04T07:16:59.665Z,269.65
2022-08-04T07:17:59.670Z,269.65
2022-08-04T07:19:10.240Z,269.65
2022-08-04T07:19:59.668Z,269.65
2022-08-04T07:20:59.672Z,269.65
2022-08-04T07:22:06.478Z,173.65
2022-08-04T07:22:59.680Z,156.71
2022-08-04T07:23:59.685Z,144
2022-08-04T07:24:59.679Z,214.59
2022-08-04T07:26:12.581Z,173.65
2022-08-04T07:26:59.678Z,169.41
2022-08-04T07:27:59.684Z,201.88
2022-08-04T07:28:59.690Z,194.82
2022-08-04T07:29:59.681Z,168
2022-08-04T07:30:59.684Z,163.76
2022-08-04T07:31:59.697Z,136.94
2022-08-04T07:32:59.688Z,176.47
2022-08-04T07:34:11.699Z,162.35
2022-08-04T07:34:59.681Z,80.47
2022-08-04T07:36:04.255Z,173.65
2022-08-04T07:36:59.681Z,136.94
2022-08-04T07:37:59.680Z,135.53
2022-08-04T07:38:59.719Z,129.88
2022-08-04T07:39:59.770Z,134.12
2022-08-04T07:40:59.692Z,144
2022-08-04T07:42:01.327Z,184.94
2022-08-04T07:42:59.690Z,127.06
2022-08-04T07:43:59.695Z,97.41
2022-08-04T07:44:59.688Z,108.71
2022-08-04T07:45:59.692Z,108.71
2022-08-04T07:46:59.699Z,108.71
2022-08-04T07:48:04.469Z,155.29
2022-08-04T07:48:59.700Z,155.29
2022-08-04T07:49:59.698Z,155.29
2022-08-04T07:50:59.693Z,155.29
2022-08-04T07:51:59.694Z,169.41
2022-08-04T07:53:22.652Z,159.53
2022-08-04T07:53:59.698Z,166.59
2022-08-04T07:54:59.704Z,158.12
2022-08-04T07:55:59.699Z,155.29
2022-08-04T07:56:59.703Z,155.29
2022-08-04T07:57:59.701Z,168
2022-08-04T07:58:59.709Z,162.35
2022-08-04T07:59:59.704Z,155.29
2022-08-04T08:00:59.708Z,132.71
2022-08-04T08:01:59.706Z,76.24
2022-08-04T08:02:59.738Z,104.47
2022-08-04T08:03:59.750Z,104.47
2022-08-04T08:04:59.702Z,91.76
2022-08-04T08:06:17.048Z,80.47
2022-08-04T08:06:59.709Z,80.47
2022-08-04T08:07:59.716Z,80.47
2022-08-04T08:08:59.713Z,80.47
2022-08-04T08:09:59.716Z,103.06
2022-08-04T08:10:59.717Z,146.82
2022-08-04T08:12:34.236Z,120
2022-08-04T08:12:59.721Z,120
2022-08-04T08:13:59.715Z,120
2022-08-04T08:14:59.721Z,120
2022-08-04T08:15:59.718Z,120
2022-08-04T08:16:59.724Z,33.88
2022-08-04T08:18:00.809Z,18.35
2022-08-04T08:18:59.720Z,57.88
2022-08-04T08:19:59.725Z,32.47
2022-08-04T08:20:59.740Z,32.47
2022-08-04T08:22:00.718Z,32.47
2022-08-04T08:22:59.829Z,32.47
2022-08-04T08:23:59.735Z,32.47
2022-08-04T08:24:59.728Z,177.88
2022-08-04T08:25:59.724Z,213.18
2022-08-04T08:26:59.720Z,173.65
2022-08-04T08:27:59.723Z,173.65
2022-08-04T08:28:59.731Z,173.65
2022-08-04T08:29:59.727Z,173.65
2022-08-04T08:30:59.724Z,173.65
2022-08-04T08:32:05.499Z,173.65
2022-08-04T08:32:59.736Z,173.65
2022-08-04T08:33:59.723Z,173.65
2022-08-04T08:34:59.729Z,201.88
2022-08-04T08:35:59.727Z,180.71
2022-08-04T08:36:59.717Z,180.71
2022-08-04T08:37:59.721Z,152.47
2022-08-04T08:38:59.761Z,203.29
2022-08-04T08:39:59.728Z,160.94
2022-08-04T08:40:59.732Z,160.94
2022-08-04T08:41:59.728Z,160.94
2022-08-04T08:42:59.730Z,160.94
2022-08-04T08:44:00.106Z,160.94
2022-08-04T08:44:59.729Z,160.94
2022-08-04T08:45:59.728Z,160.94
2022-08-04T08:46:59.725Z,160.94
2022-08-04T08:48:05.667Z,160.94
2022-08-04T08:48:59.735Z,160.94
2022-08-04T08:50:01.527Z,160.94
2022-08-04T08:50:59.736Z,160.94
2022-08-04T08:51:59.735Z,194.82
2022-08-04T08:53:01.391Z,189.18
2022-08-04T08:53:59.733Z,190.59
2022-08-04T08:54:59.745Z,162.35
2022-08-04T08:55:59.731Z,162.35
2022-08-04T08:56:59.735Z,162.35
2022-08-04T08:58:00.721Z,162.35
2022-08-04T08:58:59.738Z,170.82
2022-08-04T08:59:59.744Z,199.06
2022-08-04T09:00:59.751Z,194.82
2022-08-04T09:01:59.797Z,194.82
2022-08-04T09:03:04.370Z,187.76
2022-08-04T09:03:59.752Z,197.65
2022-08-04T09:04:59.756Z,155.29
2022-08-04T09:05:59.756Z,155.29
2022-08-04T09:06:59.747Z,155.29
2022-08-04T09:07:59.751Z,203.29
2022-08-04T09:08:59.750Z,238.59
2022-08-04T09:09:59.750Z,186.35
2022-08-04T09:10:59.749Z,186.35
2022-08-04T09:11:59.762Z,186.35
2022-08-04T09:12:59.756Z,186.35
2022-08-04T09:13:59.764Z,186.35
2022-08-04T09:14:59.765Z,186.35
2022-08-04T09:15:59.750Z,186.35
2022-08-04T09:16:59.768Z,186.35
2022-08-04T09:17:59.766Z,186.35
2022-08-04T09:18:59.758Z,186.35
2022-08-04T09:19:59.777Z,186.35
2022-08-04T09:20:59.758Z,240
2022-08-04T09:21:59.764Z,247.06
2022-08-04T09:22:59.764Z,237.18
2022-08-04T09:23:59.767Z,249.88
2022-08-04T09:24:59.771Z,193.41
2022-08-04T09:25:59.769Z,232.94
2022-08-04T09:27:00.212Z,272.47
2022-08-04T09:28:02.972Z,211.76
2022-08-04T09:28:59.778Z,241.41
2022-08-04T09:29:59.779Z,254.12
2022-08-04T09:30:59.774Z,197.65
2022-08-04T09:32:06.618Z,225.88
2022-08-04T09:32:59.784Z,225.88
2022-08-04T09:33:59.780Z,225.88
2022-08-04T09:35:03.365Z,225.88
2022-08-04T09:35:59.782Z,225.88
2022-08-04T09:36:59.785Z,214.59
2022-08-04T09:37:59.781Z,214.59
2022-08-04T09:38:59.815Z,196.24
2022-08-04T09:39:59.865Z,213.18
2022-08-04T09:40:59.793Z,220.24
2022-08-04T09:41:59.830Z,193.41
2022-08-04T09:42:59.793Z,193.41
2022-08-04T09:44:43.299Z,193.41
2022-08-04T09:45:05.645Z,193.41
2022-08-04T09:45:59.803Z,193.41
2022-08-04T09:46:59.914Z,193.41
2022-08-04T09:47:59.799Z,190.59
2022-08-04T09:48:59.817Z,169.41
2022-08-04T09:49:59.817Z,262.59
2022-08-04T09:50:59.820Z,288
2022-08-04T09:51:59.946Z,288
2022-08-04T09:52:59.812Z,288
2022-08-04T09:53:59.812Z,288
2022-08-04T09:54:59.824Z,288
2022-08-04T09:56:02.945Z,288
2022-08-04T09:56:59.814Z,276.71
2022-08-04T09:57:59.828Z,269.65
2022-08-04T09:58:59.827Z,297.88
2022-08-04T09:59:59.827Z,269.65
2022-08-04T10:00:59.826Z,266.82
2022-08-04T10:02:00.406Z,276.71
2022-08-04T10:02:59.876Z,261.18
2022-08-04T10:03:59.825Z,288
2022-08-04T10:04:59.830Z,252.71
2022-08-04T10:05:59.833Z,218.82
2022-08-04T10:06:59.827Z,218.82
2022-08-04T10:08:15.999Z,208.94
2022-08-04T10:08:59.832Z,208.94
2022-08-04T10:09:59.834Z,208.94
2022-08-04T10:10:59.823Z,265.41
2022-08-04T10:11:59.832Z,264
2022-08-04T10:12:59.847Z,232.94
2022-08-04T10:13:59.846Z,214.59
2022-08-04T10:14:59.843Z,280.94
2022-08-04T10:15:59.838Z,292.24
2022-08-04T10:16:59.842Z,306.35
2022-08-04T10:17:59.849Z,300.71
2022-08-04T10:19:00.207Z,323.29
2022-08-04T10:19:59.852Z,296.47
2022-08-04T10:21:04.742Z,293.65
2022-08-04T10:22:29.391Z,208.94
2022-08-04T10:23:10.949Z,210.35
2022-08-04T10:24:00.271Z,220.24
2022-08-04T10:24:59.860Z,156.71
2022-08-04T10:26:03.746Z,31.06
2022-08-04T10:26:59.866Z,228.71
2022-08-04T10:27:59.861Z,197.65
2022-08-04T10:28:59.873Z,196.24
2022-08-04T10:29:59.877Z,152.47
2022-08-04T10:30:59.870Z,278.12
2022-08-04T10:31:59.877Z,295.06
2022-08-04T10:32:59.866Z,278.12
2022-08-04T10:33:59.900Z,278.12
2022-08-04T10:34:59.876Z,278.12
2022-08-04T10:35:59.880Z,278.12
2022-08-04T10:36:59.881Z,278.12
2022-08-04T10:38:01.586Z,278.12
2022-08-04T10:38:59.957Z,300.71
2022-08-04T10:39:59.925Z,268.24
2022-08-04T10:40:59.892Z,268.24
2022-08-04T10:41:59.895Z,268.24
2022-08-04T10:42:59.878Z,268.24
2022-08-04T10:43:59.883Z,268.24
2022-08-04T10:44:59.879Z,268.24
2022-08-04T10:45:59.880Z,268.24
2022-08-04T10:46:59.889Z,268.24
2022-08-04T10:48:01.405Z,268.24
2022-08-04T10:48:59.887Z,268.24
2022-08-04T10:49:59.896Z,262.59
2022-08-04T10:50:59.892Z,273.88
2022-08-04T10:51:59.968Z,216
2022-08-04T10:52:59.898Z,323.29
2022-08-04T10:53:59.899Z,282.35
2022-08-04T10:54:59.891Z,282.35
2022-08-04T10:56:05.939Z,282.35
2022-08-04T10:56:59.902Z,282.35
2022-08-04T10:57:59.910Z,282.35
2022-08-04T10:58:59.906Z,282.35
2022-08-04T11:00:00.720Z,282.35
2022-08-04T11:00:59.923Z,256.94
2022-08-04T11:02:03.128Z,256.94
2022-08-04T11:02:59.954Z,83.29
2022-08-04T11:03:59.905Z,79.06
2022-08-04T11:04:59.901Z,79.06
2022-08-04T11:05:59.912Z,265.41
2022-08-04T11:06:59.910Z,210.35
2022-08-04T11:07:59.914Z,214.59
2022-08-04T11:08:59.939Z,214.59
2022-08-04T11:09:59.910Z,214.59
2022-08-04T11:10:59.918Z,214.59
2022-08-04T11:12:01.141Z,214.59
2022-08-04T11:12:59.915Z,264
2022-08-04T11:13:59.916Z,255.53
2022-08-04T11:14:59.932Z,255.53
2022-08-04T11:15:59.919Z,255.53
2022-08-04T11:16:59.924Z,255.53
2022-08-04T11:17:59.918Z,32.47
2022-08-04T11:18:59.921Z,266.82
2022-08-04T11:20:12.594Z,251.29
2022-08-04T11:20:59.923Z,271.06
2022-08-04T11:21:59.926Z,230.12
2022-08-04T11:22:59.923Z,307.76
2022-08-04T11:23:59.912Z,278.12
2022-08-04T11:24:59.922Z,320.47
2022-08-04T11:25:59.929Z,290.82
2022-08-04T11:26:59.930Z,306.35
2022-08-04T11:27:59.923Z,223.06
2022-08-04T11:29:03.478Z,224.47
2022-08-04T11:29:59.928Z,259.76
2022-08-04T11:30:59.934Z,303.53
2022-08-04T11:31:59.933Z,273.88
2022-08-04T11:32:59.946Z,302.12
2022-08-04T11:33:59.958Z,285.18
2022-08-04T11:34:59.930Z,293.65
2022-08-04T11:35:59.930Z,337.41
2022-08-04T11:36:59.938Z,292.24
2022-08-04T11:37:59.936Z,278.12
2022-08-04T11:38:59.983Z,327.53
2022-08-04T11:39:59.946Z,302.12
2022-08-04T11:41:02.922Z,290.82
2022-08-04T11:41:59.948Z,314.82
2022-08-04T11:42:59.948Z,273.88
2022-08-04T11:44:01.552Z,280.94
2022-08-04T11:44:59.949Z,261.18
2022-08-04T11:45:59.945Z,268.24
2022-08-04T11:46:59.953Z,252.71
2022-08-04T11:47:59.957Z,283.76
2022-08-04T11:48:59.956Z,313.41
2022-08-04T11:49:59.951Z,320.47
2022-08-04T11:50:59.959Z,314.82
2022-08-04T11:51:59.969Z,296.47
2022-08-04T11:52:59.958Z,326.12
2022-08-04T11:53:59.960Z,347.29
2022-08-04T11:54:59.972Z,64.94
2022-08-04T11:56:07.304Z,118.59
2022-08-04T11:56:59.961Z,118.59
2022-08-04T11:57:59.970Z,125.65
2022-08-04T11:58:59.960Z,84.71
2022-08-04T12:00:04.087Z,124.24
2022-08-04T12:00:59.966Z,115.76
2022-08-04T12:02:00.016Z,97.41
2022-08-04T12:02:59.962Z,272.47
2022-08-04T12:04:04.088Z,4.24
2022-08-04T12:04:59.964Z,327.53
2022-08-04T12:05:59.969Z,80.47
2022-08-04T12:07:21.590Z,42.35
2022-08-04T12:07:59.962Z,28.24
2022-08-04T12:08:59.990Z,312
2022-08-04T12:09:59.981Z,312
2022-08-04T12:10:59.978Z,18.35
2022-08-04T12:11:59.975Z,18.35
2022-08-04T12:12:59.979Z,18.35
2022-08-04T12:14:00.788Z,59.29
2022-08-04T12:14:59.989Z,90.35
2022-08-04T12:15:59.987Z,66.35
2022-08-04T12:16:59.979Z,338.82
2022-08-04T12:18:00.030Z,297.88
2022-08-04T12:18:59.990Z,48
2022-08-04T12:20:04.746Z,11.29
2022-08-04T12:20:59.989Z,12.71
2022-08-04T12:21:59.993Z,11.29
2022-08-04T12:22:59.993Z,337.41
2022-08-04T12:24:00.545Z,299.29
2022-08-04T12:24:59.990Z,296.47
2022-08-04T12:25:59.989Z,273.88
2022-08-04T12:26:59.995Z,283.76
2022-08-04T12:27:59.999Z,288
2022-08-04T12:29:09.865Z,288
2022-08-04T12:30:56.388Z,276.71
2022-08-04T12:31:04.186Z,276.71
2022-08-04T12:31:59.996Z,183.53
2022-08-04T12:32:59.999Z,186.35